sensor_id;sensor_type;location;lat;lon;timestamp;P1;durP1;ratioP1;P2;durP2;ratioP2
27939;SDS011;15275;51.716;14.324;2022-09-09T00:04:42;2.40;;;2.03;;
27939;SDS011;15275;51.716;14.324;2022-09-09T00:21:22;2.30;;;2.10;;
27939;SDS011;15275;51.716;14.324;2022-09-09T00:23:57;1.60;;;1.48;;
27939;SDS011;15275;51.716;14.324;2022-09-09T00:31:33;1.55;;;1.45;;
27939;SDS011;15275;51.716;14.324;2022-09-09T00:34:13;1.92;;;1.67;;
27939;SDS011;15275;51.716;14.324;2022-09-09T00:36:44;2.17;;;1.75;;
27939;SDS011;15275;51.716;14.324;2022-09-09T00:44:56;1.33;;;1.20;;
27939;SDS011;15275;51.716;14.324;2022-09-09T00:47:45;1.67;;;1.58;;
27939;SDS011;15275;51.716;14.324;2022-09-09T00:58:53;4.18;;;1.42;;
27939;SDS011;15275;51.716;14.324;2022-09-09T01:01:32;1.48;;;1.33;;
27939;SDS011;15275;51.716;14.324;2022-09-09T01:04:00;2.08;;;1.60;;
27939;SDS011;15275;51.716;14.324;2022-09-09T01:06:31;2.13;;;1.38;;
27939;SDS011;15275;51.716;14.324;2022-09-09T01:12:17;2.17;;;1.30;;
27939;SDS011;15275;51.716;14.324;2022-09-09T01:23:40;1.30;;;1.20;;
27939;SDS011;15275;51.716;14.324;2022-09-09T01:26:34;2.15;;;1.65;;
27939;SDS011;15275;51.716;14.324;2022-09-09T01:29:09;3.55;;;1.40;;
27939;SDS011;15275;51.716;14.324;2022-09-09T01:31:38;1.58;;;1.48;;
27939;SDS011;15275;51.716;14.324;2022-09-09T01:34:14;2.70;;;1.40;;
27939;SDS011;15275;51.716;14.324;2022-09-09T01:36:42;1.33;;;1.23;;
27939;SDS011;15275;51.716;14.324;2022-09-09T01:39:22;2.20;;;1.48;;
27939;SDS011;15275;51.716;14.324;2022-09-09T01:41:48;4.43;;;1.42;;
27939;SDS011;15275;51.716;14.324;2022-09-09T01:44:14;3.67;;;1.40;;
27939;SDS011;15275;51.716;14.324;2022-09-09T01:46:40;1.40;;;1.27;;
27939;SDS011;15275;51.716;14.324;2022-09-09T01:49:06;3.58;;;1.30;;
27939;SDS011;15275;51.716;14.324;2022-09-09T01:51:33;1.63;;;1.33;;
27939;SDS011;15275;51.716;14.324;2022-09-09T01:54:01;1.60;;;1.33;;
27939;SDS011;15275;51.716;14.324;2022-09-09T02:02:31;1.15;;;1.05;;
27939;SDS011;15275;51.716;14.324;2022-09-09T02:07:41;1.55;;;1.10;;
27939;SDS011;15275;51.716;14.324;2022-09-09T02:10:19;1.50;;;1.40;;
27939;SDS011;15275;51.716;14.324;2022-09-09T02:12:53;1.92;;;0.98;;
27939;SDS011;15275;51.716;14.324;2022-09-09T02:15:34;3.20;;;1.38;;
27939;SDS011;15275;51.716;14.324;2022-09-09T02:18:13;3.15;;;1.35;;
27939;SDS011;15275;51.716;14.324;2022-09-09T02:20:43;3.10;;;1.50;;
27939;SDS011;15275;51.716;14.324;2022-09-09T02:23:10;1.35;;;0.80;;
27939;SDS011;15275;51.716;14.324;2022-09-09T02:25:37;2.22;;;1.45;;
27939;SDS011;15275;51.716;14.324;2022-09-09T02:28:07;1.55;;;1.33;;
27939;SDS011;15275;51.716;14.324;2022-09-09T02:30:35;2.95;;;1.50;;
27939;SDS011;15275;51.716;14.324;2022-09-09T02:33:03;1.38;;;1.25;;
27939;SDS011;15275;51.716;14.324;2022-09-09T02:35:32;1.42;;;1.33;;
27939;SDS011;15275;51.716;14.324;2022-09-09T02:38:04;1.77;;;1.10;;
27939;SDS011;15275;51.716;14.324;2022-09-09T02:40:36;1.73;;;1.23;;
27939;SDS011;15275;51.716;14.324;2022-09-09T02:43:02;1.35;;;1.20;;
27939;SDS011;15275;51.716;14.324;2022-09-09T02:45:31;1.20;;;1.10;;
27939;SDS011;15275;51.716;14.324;2022-09-09T02:51:03;1.20;;;1.10;;
27939;SDS011;15275;51.716;14.324;2022-09-09T02:53:50;1.33;;;1.20;;
27939;SDS011;15275;51.716;14.324;2022-09-09T02:56:35;2.45;;;1.30;;
27939;SDS011;15275;51.716;14.324;2022-09-09T02:59:07;1.15;;;1.05;;
27939;SDS011;15275;51.716;14.324;2022-09-09T03:01:33;2.67;;;1.15;;
27939;SDS011;15275;51.716;14.324;2022-09-09T03:04:00;1.35;;;1.20;;
27939;SDS011;15275;51.716;14.324;2022-09-09T03:06:30;3.25;;;1.33;;
27939;SDS011;15275;51.716;14.324;2022-09-09T03:08:56;2.53;;;1.13;;
27939;SDS011;15275;51.716;14.324;2022-09-09T03:11:22;3.10;;;1.55;;
27939;SDS011;15275;51.716;14.324;2022-09-09T03:13:48;2.05;;;1.20;;
27939;SDS011;15275;51.716;14.324;2022-09-09T03:16:14;1.67;;;1.33;;
27939;SDS011;15275;51.716;14.324;2022-09-09T03:18:40;2.90;;;1.00;;
27939;SDS011;15275;51.716;14.324;2022-09-09T03:21:06;1.52;;;1.02;;
27939;SDS011;15275;51.716;14.324;2022-09-09T03:23:31;2.10;;;1.10;;
27939;SDS011;15275;51.716;14.324;2022-09-09T03:25:57;2.05;;;1.35;;
27939;SDS011;15275;51.716;14.324;2022-09-09T03:28:23;1.15;;;1.05;;
27939;SDS011;15275;51.716;14.324;2022-09-09T03:30:58;1.60;;;1.10;;
27939;SDS011;15275;51.716;14.324;2022-09-09T03:33:25;2.70;;;1.10;;
27939;SDS011;15275;51.716;14.324;2022-09-09T03:35:51;1.40;;;1.15;;
27939;SDS011;15275;51.716;14.324;2022-09-09T03:38:18;2.17;;;1.35;;
27939;SDS011;15275;51.716;14.324;2022-09-09T03:40:53;1.10;;;1.00;;
27939;SDS011;15275;51.716;14.324;2022-09-09T03:43:22;1.20;;;1.10;;
27939;SDS011;15275;51.716;14.324;2022-09-09T03:45:49;4.40;;;1.52;;
27939;SDS011;15275;51.716;14.324;2022-09-09T03:48:16;3.30;;;1.33;;
27939;SDS011;15275;51.716;14.324;2022-09-09T03:50:46;2.58;;;1.15;;
27939;SDS011;15275;51.716;14.324;2022-09-09T03:53:15;5.68;;;1.80;;
27939;SDS011;15275;51.716;14.324;2022-09-09T03:55:46;3.38;;;1.35;;
27939;SDS011;15275;51.716;14.324;2022-09-09T03:58:15;2.72;;;1.40;;
27939;SDS011;15275;51.716;14.324;2022-09-09T04:00:43;3.75;;;1.30;;
27939;SDS011;15275;51.716;14.324;2022-09-09T04:03:23;2.13;;;1.13;;
27939;SDS011;15275;51.716;14.324;2022-09-09T04:05:53;2.58;;;1.52;;
27939;SDS011;15275;51.716;14.324;2022-09-09T04:08:21;4.03;;;1.00;;
27939;SDS011;15275;51.716;14.324;2022-09-09T04:10:50;2.83;;;1.50;;
27939;SDS011;15275;51.716;14.324;2022-09-09T04:13:18;1.77;;;1.27;;
27939;SDS011;15275;51.716;14.324;2022-09-09T04:15:50;2.20;;;1.20;;
27939;SDS011;15275;51.716;14.324;2022-09-09T04:18:18;2.70;;;1.40;;
27939;SDS011;15275;51.716;14.324;2022-09-09T04:20:51;2.30;;;1.50;;
27939;SDS011;15275;51.716;14.324;2022-09-09T04:23:18;1.55;;;1.02;;
27939;SDS011;15275;51.716;14.324;2022-09-09T04:25:49;4.18;;;1.30;;
27939;SDS011;15275;51.716;14.324;2022-09-09T04:28:18;1.83;;;1.23;;
27939;SDS011;15275;51.716;14.324;2022-09-09T04:30:45;1.70;;;1.15;;
27939;SDS011;15275;51.716;14.324;2022-09-09T04:33:12;1.67;;;1.10;;
27939;SDS011;15275;51.716;14.324;2022-09-09T04:35:39;2.63;;;1.83;;
27939;SDS011;15275;51.716;14.324;2022-09-09T04:38:09;2.72;;;1.30;;
27939;SDS011;15275;51.716;14.324;2022-09-09T04:40:35;2.85;;;1.40;;
27939;SDS011;15275;51.716;14.324;2022-09-09T04:48:13;2.17;;;1.10;;
27939;SDS011;15275;51.716;14.324;2022-09-09T04:50:39;1.70;;;1.55;;
27939;SDS011;15275;51.716;14.324;2022-09-09T04:53:06;1.40;;;1.23;;
27939;SDS011;15275;51.716;14.324;2022-09-09T04:55:32;1.67;;;1.20;;
27939;SDS011;15275;51.716;14.324;2022-09-09T04:58:06;2.22;;;1.15;;
27939;SDS011;15275;51.716;14.324;2022-09-09T05:00:37;2.40;;;1.40;;
27939;SDS011;15275;51.716;14.324;2022-09-09T05:03:03;3.08;;;1.38;;
27939;SDS011;15275;51.716;14.324;2022-09-09T05:05:30;3.25;;;1.52;;
27939;SDS011;15275;51.716;14.324;2022-09-09T05:08:05;1.67;;;1.35;;
27939;SDS011;15275;51.716;14.324;2022-09-09T05:10:34;1.52;;;1.17;;
27939;SDS011;15275;51.716;14.324;2022-09-09T05:13:02;1.42;;;0.98;;
27939;SDS011;15275;51.716;14.324;2022-09-09T05:15:29;2.38;;;1.25;;
27939;SDS011;15275;51.716;14.324;2022-09-09T05:17:59;1.67;;;1.35;;
27939;SDS011;15275;51.716;14.324;2022-09-09T05:20:26;1.73;;;1.30;;
27939;SDS011;15275;51.716;14.324;2022-09-09T05:22:53;1.75;;;1.05;;
27939;SDS011;15275;51.716;14.324;2022-09-09T05:25:20;2.45;;;1.05;;
27939;SDS011;15275;51.716;14.324;2022-09-09T05:27:47;2.65;;;1.40;;
27939;SDS011;15275;51.716;14.324;2022-09-09T05:30:14;3.97;;;1.35;;
27939;SDS011;15275;51.716;14.324;2022-09-09T05:32:40;3.20;;;1.38;;
27939;SDS011;15275;51.716;14.324;2022-09-09T05:35:06;2.30;;;1.13;;
27939;SDS011;15275;51.716;14.324;2022-09-09T05:37:32;2.08;;;1.20;;
27939;SDS011;15275;51.716;14.324;2022-09-09T05:39:58;2.05;;;1.30;;
27939;SDS011;15275;51.716;14.324;2022-09-09T05:42:25;3.47;;;1.30;;
27939;SDS011;15275;51.716;14.324;2022-09-09T05:44:55;5.30;;;1.13;;
27939;SDS011;15275;51.716;14.324;2022-09-09T05:47:23;4.13;;;1.40;;
27939;SDS011;15275;51.716;14.324;2022-09-09T05:49:49;1.90;;;1.48;;
27939;SDS011;15275;51.716;14.324;2022-09-09T05:52:14;2.53;;;1.55;;
27939;SDS011;15275;51.716;14.324;2022-09-09T05:54:40;2.25;;;1.25;;
27939;SDS011;15275;51.716;14.324;2022-09-09T05:57:08;1.50;;;1.40;;
27939;SDS011;15275;51.716;14.324;2022-09-09T05:59:33;2.15;;;1.33;;
27939;SDS011;15275;51.716;14.324;2022-09-09T06:01:59;5.07;;;1.38;;
27939;SDS011;15275;51.716;14.324;2022-09-09T06:04:25;2.05;;;0.90;;
27939;SDS011;15275;51.716;14.324;2022-09-09T06:06:51;3.85;;;1.70;;
27939;SDS011;15275;51.716;14.324;2022-09-09T06:12:59;2.22;;;1.20;;
27939;SDS011;15275;51.716;14.324;2022-09-09T06:15:25;5.55;;;1.38;;
27939;SDS011;15275;51.716;14.324;2022-09-09T06:17:55;1.80;;;1.30;;
27939;SDS011;15275;51.716;14.324;2022-09-09T06:20:21;2.25;;;1.30;;
27939;SDS011;15275;51.716;14.324;2022-09-09T06:22:47;2.58;;;1.30;;
27939;SDS011;15275;51.716;14.324;2022-09-09T06:25:14;2.50;;;1.75;;
27939;SDS011;15275;51.716;14.324;2022-09-09T06:27:39;1.60;;;1.10;;
27939;SDS011;15275;51.716;14.324;2022-09-09T06:30:07;2.70;;;1.23;;
27939;SDS011;15275;51.716;14.324;2022-09-09T06:32:34;2.50;;;1.48;;
27939;SDS011;15275;51.716;14.324;2022-09-09T06:35:02;2.47;;;1.30;;
27939;SDS011;15275;51.716;14.324;2022-09-09T06:37:28;1.35;;;1.10;;
27939;SDS011;15275;51.716;14.324;2022-09-09T06:39:54;3.75;;;1.13;;
27939;SDS011;15275;51.716;14.324;2022-09-09T06:42:20;3.80;;;1.00;;
27939;SDS011;15275;51.716;14.324;2022-09-09T06:44:46;3.55;;;1.08;;
27939;SDS011;15275;51.716;14.324;2022-09-09T06:47:11;2.80;;;1.50;;
27939;SDS011;15275;51.716;14.324;2022-09-09T06:49:37;3.17;;;1.48;;
27939;SDS011;15275;51.716;14.324;2022-09-09T06:52:03;2.17;;;1.30;;
27939;SDS011;15275;51.716;14.324;2022-09-09T06:54:29;2.30;;;1.10;;
27939;SDS011;15275;51.716;14.324;2022-09-09T06:56:55;1.50;;;1.10;;
27939;SDS011;15275;51.716;14.324;2022-09-09T06:59:20;2.60;;;1.10;;
27939;SDS011;15275;51.716;14.324;2022-09-09T07:01:46;3.80;;;1.30;;
27939;SDS011;15275;51.716;14.324;2022-09-09T07:04:12;2.25;;;1.20;;
27939;SDS011;15275;51.716;14.324;2022-09-09T07:06:43;2.50;;;1.40;;
27939;SDS011;15275;51.716;14.324;2022-09-09T07:09:12;2.63;;;1.40;;
27939;SDS011;15275;51.716;14.324;2022-09-09T07:11:44;3.05;;;1.45;;
27939;SDS011;15275;51.716;14.324;2022-09-09T07:14:12;1.58;;;1.13;;
27939;SDS011;15275;51.716;14.324;2022-09-09T07:16:40;1.80;;;1.00;;
27939;SDS011;15275;51.716;14.324;2022-09-09T07:19:07;3.17;;;1.30;;
27939;SDS011;15275;51.716;14.324;2022-09-09T07:21:33;0.90;;;0.73;;
27939;SDS011;15275;51.716;14.324;2022-09-09T07:23:59;2.75;;;1.08;;
27939;SDS011;15275;51.716;14.324;2022-09-09T07:26:28;4.13;;;1.00;;
27939;SDS011;15275;51.716;14.324;2022-09-09T07:28:55;3.03;;;0.90;;
27939;SDS011;15275;51.716;14.324;2022-09-09T07:31:23;3.75;;;1.58;;
27939;SDS011;15275;51.716;14.324;2022-09-09T07:33:57;6.80;;;1.63;;
27939;SDS011;15275;51.716;14.324;2022-09-09T07:36:28;1.02;;;0.90;;
27939;SDS011;15275;51.716;14.324;2022-09-09T07:39:01;2.40;;;1.10;;
27939;SDS011;15275;51.716;14.324;2022-09-09T07:41:35;1.55;;;0.98;;
27939;SDS011;15275;51.716;14.324;2022-09-09T07:44:19;2.78;;;1.00;;
27939;SDS011;15275;51.716;14.324;2022-09-09T07:46:48;1.40;;;0.93;;
27939;SDS011;15275;51.716;14.324;2022-09-09T07:49:14;2.83;;;1.00;;
27939;SDS011;15275;51.716;14.324;2022-09-09T07:51:41;3.10;;;1.10;;
27939;SDS011;15275;51.716;14.324;2022-09-09T07:54:11;2.88;;;1.33;;
27939;SDS011;15275;51.716;14.324;2022-09-09T07:56:40;3.45;;;1.30;;
27939;SDS011;15275;51.716;14.324;2022-09-09T07:59:07;2.35;;;1.42;;
27939;SDS011;15275;51.716;14.324;2022-09-09T08:01:35;1.42;;;1.13;;
27939;SDS011;15275;51.716;14.324;2022-09-09T08:04:12;6.07;;;1.23;;
27939;SDS011;15275;51.716;14.324;2022-09-09T08:06:50;3.42;;;1.13;;
27939;SDS011;15275;51.716;14.324;2022-09-09T08:09:20;3.35;;;1.05;;
27939;SDS011;15275;51.716;14.324;2022-09-09T08:11:49;2.67;;;1.02;;
27939;SDS011;15275;51.716;14.324;2022-09-09T08:14:15;3.83;;;1.00;;
27939;SDS011;15275;51.716;14.324;2022-09-09T08:16:43;1.67;;;0.85;;
27939;SDS011;15275;51.716;14.324;2022-09-09T08:19:12;1.90;;;1.10;;
27939;SDS011;15275;51.716;14.324;2022-09-09T08:21:40;5.70;;;0.88;;
27939;SDS011;15275;51.716;14.324;2022-09-09T08:24:08;2.03;;;0.90;;
27939;SDS011;15275;51.716;14.324;2022-09-09T08:26:37;1.63;;;1.17;;
27939;SDS011;15275;51.716;14.324;2022-09-09T08:29:06;3.75;;;1.00;;
27939;SDS011;15275;51.716;14.324;2022-09-09T08:31:43;3.40;;;1.00;;
27939;SDS011;15275;51.716;14.324;2022-09-09T08:34:14;2.42;;;1.10;;
27939;SDS011;15275;51.716;14.324;2022-09-09T08:36:41;2.20;;;0.93;;
27939;SDS011;15275;51.716;14.324;2022-09-09T08:39:10;1.38;;;1.00;;
27939;SDS011;15275;51.716;14.324;2022-09-09T08:50:25;2.75;;;0.90;;
27939;SDS011;15275;51.716;14.324;2022-09-09T08:55:52;4.15;;;0.70;;
27939;SDS011;15275;51.716;14.324;2022-09-09T09:11:38;1.15;;;0.73;;
27939;SDS011;15275;51.716;14.324;2022-09-09T09:14:26;3.10;;;0.93;;
27939;SDS011;15275;51.716;14.324;2022-09-09T09:17:03;2.73;;;1.10;;
27939;SDS011;15275;51.716;14.324;2022-09-09T09:19:38;3.20;;;0.90;;
27939;SDS011;15275;51.716;14.324;2022-09-09T09:27:39;2.15;;;0.82;;
27939;SDS011;15275;51.716;14.324;2022-09-09T09:30:49;4.93;;;1.27;;
27939;SDS011;15275;51.716;14.324;2022-09-09T09:34:05;2.00;;;1.00;;
27939;SDS011;15275;51.716;14.324;2022-09-09T09:36:16;1.73;;;0.65;;
27939;SDS011;15275;51.716;14.324;2022-09-09T09:41:56;2.03;;;0.93;;
27939;SDS011;15275;51.716;14.324;2022-09-09T09:44:26;2.28;;;0.80;;
27939;SDS011;15275;51.716;14.324;2022-09-09T09:47:16;2.30;;;0.75;;
27939;SDS011;15275;51.716;14.324;2022-09-09T09:49:53;2.15;;;1.00;;
27939;SDS011;15275;51.716;14.324;2022-09-09T09:52:30;2.38;;;0.80;;
27939;SDS011;15275;51.716;14.324;2022-09-09T09:54:59;3.05;;;0.93;;
27939;SDS011;15275;51.716;14.324;2022-09-09T09:57:32;3.72;;;0.77;;
27939;SDS011;15275;51.716;14.324;2022-09-09T10:02:39;1.92;;;1.00;;
27939;SDS011;15275;51.716;14.324;2022-09-09T10:05:15;1.35;;;0.70;;
27939;SDS011;15275;51.716;14.324;2022-09-09T10:07:46;3.67;;;1.00;;
27939;SDS011;15275;51.716;14.324;2022-09-09T10:10:31;1.80;;;0.73;;
27939;SDS011;15275;51.716;14.324;2022-09-09T10:19:13;2.13;;;0.85;;
27939;SDS011;15275;51.716;14.324;2022-09-09T10:30:01;3.13;;;0.90;;
27939;SDS011;15275;51.716;14.324;2022-09-09T10:38:39;3.15;;;0.75;;
27939;SDS011;15275;51.716;14.324;2022-09-09T10:47:05;2.88;;;1.10;;
27939;SDS011;15275;51.716;14.324;2022-09-09T10:55:48;1.52;;;0.90;;
27939;SDS011;15275;51.716;14.324;2022-09-09T10:58:23;1.88;;;1.00;;
27939;SDS011;15275;51.716;14.324;2022-09-09T11:01:02;2.50;;;1.13;;
27939;SDS011;15275;51.716;14.324;2022-09-09T11:03:40;2.60;;;0.98;;
27939;SDS011;15275;51.716;14.324;2022-09-09T11:06:13;3.38;;;1.00;;
27939;SDS011;15275;51.716;14.324;2022-09-09T11:08:44;2.53;;;0.93;;
27939;SDS011;15275;51.716;14.324;2022-09-09T11:21:56;2.35;;;1.02;;
27939;SDS011;15275;51.716;14.324;2022-09-09T11:24:34;1.13;;;0.60;;
27939;SDS011;15275;51.716;14.324;2022-09-09T11:27:09;1.95;;;0.60;;
27939;SDS011;15275;51.716;14.324;2022-09-09T11:38:15;2.38;;;0.75;;
27939;SDS011;15275;51.716;14.324;2022-09-09T11:40:45;2.15;;;0.63;;
27939;SDS011;15275;51.716;14.324;2022-09-09T11:45:43;1.05;;;0.60;;
27939;SDS011;15275;51.716;14.324;2022-09-09T11:48:37;1.17;;;0.70;;
27939;SDS011;15275;51.716;14.324;2022-09-09T11:51:12;1.00;;;0.45;;
27939;SDS011;15275;51.716;14.324;2022-09-09T11:59:28;0.85;;;0.40;;
27939;SDS011;15275;51.716;14.324;2022-09-09T12:04:37;0.75;;;0.40;;
27939;SDS011;15275;51.716;14.324;2022-09-09T12:09:48;0.30;;;0.28;;
27939;SDS011;15275;51.716;14.324;2022-09-09T12:26:14;1.50;;;0.50;;
27939;SDS011;15275;51.716;14.324;2022-09-09T12:37:05;1.38;;;0.47;;
27939;SDS011;15275;51.716;14.324;2022-09-09T12:39:51;0.90;;;0.47;;
27939;SDS011;15275;51.716;14.324;2022-09-09T12:42:23;1.02;;;0.50;;
27939;SDS011;15275;51.716;14.324;2022-09-09T12:44:55;1.52;;;0.55;;
27939;SDS011;15275;51.716;14.324;2022-09-09T12:47:48;0.82;;;0.47;;
27939;SDS011;15275;51.716;14.324;2022-09-09T12:50:50;0.57;;;0.38;;
27939;SDS011;15275;51.716;14.324;2022-09-09T12:53:25;1.08;;;0.50;;
27939;SDS011;15275;51.716;14.324;2022-09-09T12:55:57;2.58;;;0.60;;
27939;SDS011;15275;51.716;14.324;2022-09-09T12:58:31;1.63;;;0.57;;
27939;SDS011;15275;51.716;14.324;2022-09-09T13:00:58;1.25;;;0.55;;
27939;SDS011;15275;51.716;14.324;2022-09-09T13:03:25;1.15;;;0.60;;
27939;SDS011;15275;51.716;14.324;2022-09-09T13:05:53;2.13;;;0.80;;
27939;SDS011;15275;51.716;14.324;2022-09-09T13:08:24;2.47;;;0.75;;
27939;SDS011;15275;51.716;14.324;2022-09-09T13:13:31;2.28;;;0.70;;
27939;SDS011;15275;51.716;14.324;2022-09-09T13:16:05;1.27;;;0.73;;
27939;SDS011;15275;51.716;14.324;2022-09-09T13:18:45;0.63;;;0.50;;
27939;SDS011;15275;51.716;14.324;2022-09-09T13:21:11;1.42;;;0.52;;
27939;SDS011;15275;51.716;14.324;2022-09-09T13:23:37;5.22;;;0.70;;
27939;SDS011;15275;51.716;14.324;2022-09-09T13:26:05;3.33;;;0.50;;
27939;SDS011;15275;51.716;14.324;2022-09-09T13:28:48;0.20;;;0.20;;
27939;SDS011;15275;51.716;14.324;2022-09-09T13:31:22;2.10;;;0.60;;
27939;SDS011;15275;51.716;14.324;2022-09-09T13:33:53;3.25;;;0.68;;
27939;SDS011;15275;51.716;14.324;2022-09-09T13:36:29;1.70;;;0.63;;
27939;SDS011;15275;51.716;14.324;2022-09-09T13:39:00;1.75;;;0.60;;
27939;SDS011;15275;51.716;14.324;2022-09-09T13:43:58;2.28;;;0.70;;
27939;SDS011;15275;51.716;14.324;2022-09-09T13:48:56;2.38;;;0.80;;
27939;SDS011;15275;51.716;14.324;2022-09-09T13:51:40;1.65;;;0.60;;
27939;SDS011;15275;51.716;14.324;2022-09-09T13:54:16;2.13;;;0.60;;
27939;SDS011;15275;51.716;14.324;2022-09-09T13:56:44;1.15;;;0.30;;
27939;SDS011;15275;51.716;14.324;2022-09-09T13:59:13;3.35;;;0.90;;
27939;SDS011;15275;51.716;14.324;2022-09-09T14:01:49;0.90;;;0.43;;
27939;SDS011;15275;51.716;14.324;2022-09-09T14:04:17;2.72;;;0.80;;
27939;SDS011;15275;51.716;14.324;2022-09-09T14:06:45;1.60;;;0.60;;
27939;SDS011;15275;51.716;14.324;2022-09-09T14:09:13;1.88;;;0.70;;
27939;SDS011;15275;51.716;14.324;2022-09-09T14:11:41;2.58;;;0.80;;
27939;SDS011;15275;51.716;14.324;2022-09-09T14:14:08;2.30;;;1.08;;
27939;SDS011;15275;51.716;14.324;2022-09-09T14:16:33;1.40;;;0.80;;
27939;SDS011;15275;51.716;14.324;2022-09-09T14:18:59;1.35;;;0.57;;
27939;SDS011;15275;51.716;14.324;2022-09-09T14:21:26;2.05;;;0.52;;
27939;SDS011;15275;51.716;14.324;2022-09-09T14:23:53;2.08;;;0.70;;
27939;SDS011;15275;51.716;14.324;2022-09-09T14:26:20;2.00;;;0.90;;
27939;SDS011;15275;51.716;14.324;2022-09-09T14:28:47;1.88;;;0.50;;
27939;SDS011;15275;51.716;14.324;2022-09-09T14:31:14;1.77;;;0.70;;
27939;SDS011;15275;51.716;14.324;2022-09-09T14:33:41;4.95;;;1.00;;
27939;SDS011;15275;51.716;14.324;2022-09-09T14:36:06;1.08;;;0.80;;
27939;SDS011;15275;51.716;14.324;2022-09-09T14:38:34;3.42;;;0.80;;
27939;SDS011;15275;51.716;14.324;2022-09-09T14:41:11;1.55;;;0.90;;
27939;SDS011;15275;51.716;14.324;2022-09-09T14:43:42;3.33;;;1.25;;
27939;SDS011;15275;51.716;14.324;2022-09-09T14:46:09;2.50;;;1.00;;
27939;SDS011;15275;51.716;14.324;2022-09-09T14:48:38;2.03;;;0.90;;
27939;SDS011;15275;51.716;14.324;2022-09-09T14:53:47;2.72;;;1.08;;
27939;SDS011;15275;51.716;14.324;2022-09-09T14:56:18;3.08;;;1.05;;
27939;SDS011;15275;51.716;14.324;2022-09-09T14:58:48;2.92;;;1.00;;
27939;SDS011;15275;51.716;14.324;2022-09-09T15:01:16;2.63;;;0.75;;
27939;SDS011;15275;51.716;14.324;2022-09-09T15:03:49;2.00;;;0.70;;
27939;SDS011;15275;51.716;14.324;2022-09-09T15:06:16;2.65;;;1.00;;
27939;SDS011;15275;51.716;14.324;2022-09-09T15:08:44;4.75;;;0.82;;
27939;SDS011;15275;51.716;14.324;2022-09-09T15:11:11;1.25;;;0.50;;
27939;SDS011;15275;51.716;14.324;2022-09-09T15:13:39;2.15;;;0.85;;
27939;SDS011;15275;51.716;14.324;2022-09-09T15:16:10;2.47;;;0.88;;
27939;SDS011;15275;51.716;14.324;2022-09-09T15:18:42;1.85;;;0.75;;
27939;SDS011;15275;51.716;14.324;2022-09-09T15:21:10;1.40;;;0.63;;
27939;SDS011;15275;51.716;14.324;2022-09-09T15:23:41;2.10;;;1.17;;
27939;SDS011;15275;51.716;14.324;2022-09-09T15:26:08;1.33;;;0.80;;
27939;SDS011;15275;51.716;14.324;2022-09-09T15:28:35;2.03;;;1.00;;
27939;SDS011;15275;51.716;14.324;2022-09-09T15:33:51;1.23;;;0.70;;
27939;SDS011;15275;51.716;14.324;2022-09-09T15:36:25;2.05;;;0.93;;
27939;SDS011;15275;51.716;14.324;2022-09-09T15:39:04;1.40;;;0.70;;
27939;SDS011;15275;51.716;14.324;2022-09-09T15:41:33;2.13;;;0.88;;
27939;SDS011;15275;51.716;14.324;2022-09-09T15:43:59;3.70;;;0.90;;
27939;SDS011;15275;51.716;14.324;2022-09-09T15:49:05;3.33;;;0.90;;
27939;SDS011;15275;51.716;14.324;2022-09-09T15:51:37;2.13;;;0.80;;
27939;SDS011;15275;51.716;14.324;2022-09-09T15:54:07;4.78;;;0.80;;
27939;SDS011;15275;51.716;14.324;2022-09-09T15:56:45;2.17;;;0.93;;
27939;SDS011;15275;51.716;14.324;2022-09-09T15:59:15;2.20;;;1.20;;
27939;SDS011;15275;51.716;14.324;2022-09-09T16:01:41;1.50;;;0.88;;
27939;SDS011;15275;51.716;14.324;2022-09-09T16:04:08;2.15;;;0.80;;
27939;SDS011;15275;51.716;14.324;2022-09-09T16:06:34;5.20;;;1.70;;
27939;SDS011;15275;51.716;14.324;2022-09-09T16:09:01;1.83;;;0.88;;
27939;SDS011;15275;51.716;14.324;2022-09-09T16:11:30;1.52;;;1.00;;
27939;SDS011;15275;51.716;14.324;2022-09-09T16:14:00;2.78;;;1.20;;
27939;SDS011;15275;51.716;14.324;2022-09-09T16:16:28;4.55;;;1.55;;
27939;SDS011;15275;51.716;14.324;2022-09-09T16:18:58;3.65;;;1.13;;
27939;SDS011;15275;51.716;14.324;2022-09-09T16:21:29;3.10;;;1.00;;
27939;SDS011;15275;51.716;14.324;2022-09-09T16:23:59;3.28;;;1.38;;
27939;SDS011;15275;51.716;14.324;2022-09-09T16:26:28;3.83;;;1.10;;
27939;SDS011;15275;51.716;14.324;2022-09-09T16:28:57;5.70;;;1.17;;
27939;SDS011;15275;51.716;14.324;2022-09-09T16:31:26;2.00;;;0.90;;
27939;SDS011;15275;51.716;14.324;2022-09-09T16:33:53;2.20;;;1.10;;
27939;SDS011;15275;51.716;14.324;2022-09-09T16:36:20;1.85;;;0.73;;
27939;SDS011;15275;51.716;14.324;2022-09-09T16:38:55;1.65;;;1.10;;
27939;SDS011;15275;51.716;14.324;2022-09-09T16:41:24;4.53;;;0.90;;
27939;SDS011;15275;51.716;14.324;2022-09-09T16:43:59;2.75;;;0.90;;
27939;SDS011;15275;51.716;14.324;2022-09-09T16:46:32;2.83;;;0.70;;
27939;SDS011;15275;51.716;14.324;2022-09-09T16:49:04;2.38;;;0.82;;
27939;SDS011;15275;51.716;14.324;2022-09-09T16:51:35;4.72;;;0.77;;
27939;SDS011;15275;51.716;14.324;2022-09-09T16:54:07;2.33;;;0.80;;
27939;SDS011;15275;51.716;14.324;2022-09-09T16:56:35;2.55;;;0.90;;
27939;SDS011;15275;51.716;14.324;2022-09-09T16:59:05;3.67;;;1.20;;
27939;SDS011;15275;51.716;14.324;2022-09-09T17:01:37;1.77;;;0.85;;
27939;SDS011;15275;51.716;14.324;2022-09-09T17:04:07;1.63;;;1.08;;
27939;SDS011;15275;51.716;14.324;2022-09-09T17:06:36;1.73;;;0.90;;
27939;SDS011;15275;51.716;14.324;2022-09-09T17:09:04;1.63;;;0.70;;
27939;SDS011;15275;51.716;14.324;2022-09-09T17:11:33;1.52;;;1.00;;
27939;SDS011;15275;51.716;14.324;2022-09-09T17:13:59;2.22;;;0.93;;
27939;SDS011;15275;51.716;14.324;2022-09-09T17:16:29;1.98;;;0.88;;
27939;SDS011;15275;51.716;14.324;2022-09-09T17:18:59;1.10;;;0.90;;
27939;SDS011;15275;51.716;14.324;2022-09-09T17:21:26;2.75;;;1.05;;
27939;SDS011;15275;51.716;14.324;2022-09-09T17:23:54;1.73;;;0.65;;
27939;SDS011;15275;51.716;14.324;2022-09-09T17:26:22;1.95;;;0.90;;
27939;SDS011;15275;51.716;14.324;2022-09-09T17:28:51;2.45;;;0.80;;
27939;SDS011;15275;51.716;14.324;2022-09-09T17:31:19;4.55;;;0.90;;
27939;SDS011;15275;51.716;14.324;2022-09-09T17:33:46;4.07;;;0.95;;
27939;SDS011;15275;51.716;14.324;2022-09-09T17:36:35;1.73;;;0.77;;
27939;SDS011;15275;51.716;14.324;2022-09-09T17:39:02;2.80;;;1.20;;
27939;SDS011;15275;51.716;14.324;2022-09-09T17:41:31;2.60;;;0.98;;
27939;SDS011;15275;51.716;14.324;2022-09-09T17:44:03;1.52;;;1.02;;
27939;SDS011;15275;51.716;14.324;2022-09-09T17:46:36;3.80;;;1.35;;
27939;SDS011;15275;51.716;14.324;2022-09-09T17:49:09;1.83;;;0.90;;
27939;SDS011;15275;51.716;14.324;2022-09-09T17:51:42;1.60;;;0.90;;
27939;SDS011;15275;51.716;14.324;2022-09-09T17:54:11;3.20;;;1.00;;
27939;SDS011;15275;51.716;14.324;2022-09-09T17:56:39;2.42;;;0.95;;
27939;SDS011;15275;51.716;14.324;2022-09-09T17:59:07;1.25;;;0.88;;
27939;SDS011;15275;51.716;14.324;2022-09-09T18:01:37;1.52;;;1.05;;
27939;SDS011;15275;51.716;14.324;2022-09-09T18:04:07;1.95;;;0.70;;
27939;SDS011;15275;51.716;14.324;2022-09-09T18:06:39;1.75;;;0.80;;
27939;SDS011;15275;51.716;14.324;2022-09-09T18:09:11;3.38;;;0.80;;
27939;SDS011;15275;51.716;14.324;2022-09-09T18:11:48;1.58;;;0.98;;
27939;SDS011;15275;51.716;14.324;2022-09-09T18:14:19;2.22;;;0.88;;
27939;SDS011;15275;51.716;14.324;2022-09-09T18:16:51;1.33;;;0.82;;
27939;SDS011;15275;51.716;14.324;2022-09-09T18:19:19;1.23;;;0.73;;
27939;SDS011;15275;51.716;14.324;2022-09-09T18:21:47;1.58;;;0.90;;